createdAt,value
2024-04-19T00:01:22.140Z,13.87
2024-04-19T00:03:51.147Z,7.40
2024-04-19T00:06:17.444Z,10.10
2024-04-19T00:08:47.758Z,8.60
2024-04-19T00:11:14.004Z,4.63
2024-04-19T00:13:42.335Z,9.57
2024-04-19T00:16:08.627Z,5.93
2024-04-19T00:18:37.049Z,7.40
2024-04-19T00:21:03.729Z,4.90
2024-04-19T00:23:32.026Z,6.70
2024-04-19T00:26:02.306Z,8.37
2024-04-19T00:28:28.534Z,7.40
2024-04-19T00:30:57.129Z,5.40
2024-04-19T00:33:25.526Z,3.97
2024-04-19T00:35:51.792Z,2.43
2024-04-19T00:38:19.995Z,12.07
2024-04-19T00:40:46.355Z,8.77
2024-04-19T00:43:16.692Z,5.63
2024-04-19T00:45:43.045Z,6.10
2024-04-19T00:48:14.117Z,8.80
2024-04-19T00:50:40.540Z,6.63
2024-04-19T00:53:09.370Z,4.40
2024-04-19T00:55:35.651Z,4.00
2024-04-19T00:58:04.505Z,3.70
2024-04-19T01:00:32.805Z,6.60
2024-04-19T01:03:01.174Z,5.50
2024-04-19T01:05:27.437Z,5.00
2024-04-19T01:07:55.997Z,6.20
2024-04-19T01:10:22.681Z,6.60
2024-04-19T01:12:51.700Z,11.07
2024-04-19T01:15:18.781Z,6.97
2024-04-19T01:17:49.227Z,5.07
2024-04-19T01:20:15.592Z,8.57
2024-04-19T01:22:45.420Z,6.07
2024-04-19T01:25:16.822Z,4.83
2024-04-19T01:27:47.200Z,5.30
2024-04-19T01:30:14.017Z,5.60
2024-04-19T01:32:42.390Z,4.63
2024-04-19T01:35:08.642Z,5.87
2024-04-19T01:37:36.874Z,4.27
2024-04-19T01:40:03.528Z,4.60
2024-04-19T01:42:31.726Z,4.33
2024-04-19T01:45:00.072Z,5.73
2024-04-19T01:47:28.360Z,5.63
2024-04-19T01:49:54.676Z,7.10
2024-04-19T01:52:22.910Z,6.33
2024-04-19T01:54:49.266Z,4.70
2024-04-19T01:57:17.540Z,8.07
2024-04-19T01:59:43.757Z,6.13
2024-04-19T02:02:14.127Z,6.97
2024-04-19T02:04:40.415Z,9.17
2024-04-19T02:07:08.732Z,6.63
2024-04-19T02:09:35.484Z,9.57
2024-04-19T02:12:03.855Z,4.30
2024-04-19T02:14:30.943Z,6.77
2024-04-19T02:16:59.719Z,7.33
2024-04-19T02:19:29.924Z,6.23
2024-04-19T02:21:58.216Z,5.57
2024-04-19T02:24:24.468Z,9.97
2024-04-19T02:26:52.920Z,6.40
2024-04-19T02:29:37.848Z,7.50
2024-04-19T02:32:06.703Z,7.17
2024-04-19T02:34:37.426Z,11.17
2024-04-19T02:37:06.082Z,11.97
2024-04-19T02:39:34.356Z,8.03
2024-04-19T02:42:02.812Z,9.57
2024-04-19T02:44:31.040Z,10.03
2024-04-19T02:46:59.433Z,11.17
2024-04-19T02:49:27.808Z,10.53
2024-04-19T02:51:59.820Z,9.50
2024-04-19T02:54:28.226Z,11.93
2024-04-19T02:56:56.442Z,16.10
2024-04-19T02:59:24.740Z,13.27
2024-04-19T03:01:52.933Z,9.17
2024-04-19T03:04:21.279Z,10.43
2024-04-19T03:06:49.640Z,11.30
2024-04-19T03:09:20.003Z,11.37
2024-04-19T03:11:48.391Z,15.43
2024-04-19T03:14:16.709Z,12.07
2024-04-19T03:16:45.020Z,17.07
2024-04-19T03:19:13.372Z,14.03
2024-04-19T03:21:41.694Z,12.23
2024-04-19T03:24:11.247Z,8.67
2024-04-19T03:26:39.498Z,12.77
2024-04-19T03:29:07.780Z,8.20
2024-04-19T03:31:35.966Z,10.30
2024-04-19T03:34:04.247Z,10.40
2024-04-19T03:36:32.691Z,10.27
2024-04-19T03:39:01.059Z,9.90
2024-04-19T03:41:33.725Z,8.10
2024-04-19T03:44:18.355Z,5.47
2024-04-19T03:46:46.679Z,7.43
2024-04-19T03:49:15.023Z,8.93
2024-04-19T03:51:43.358Z,6.80
2024-04-19T03:54:11.759Z,8.73
2024-04-19T03:56:40.144Z,7.80
2024-04-19T03:59:10.438Z,8.13
2024-04-19T04:01:39.325Z,8.73
2024-04-19T04:04:08.283Z,8.77
2024-04-19T04:06:36.619Z,15.63
2024-04-19T04:09:05.080Z,12.33
2024-04-19T04:11:33.397Z,7.97
2024-04-19T04:14:01.627Z,10.70
2024-04-19T04:16:31.961Z,7.33
2024-04-19T04:19:00.538Z,7.97
2024-04-19T04:21:28.836Z,9.03
2024-04-19T04:23:57.244Z,8.07
2024-04-19T04:26:25.586Z,8.37
2024-04-19T04:28:54.002Z,7.93
2024-04-19T04:31:22.348Z,6.40
2024-04-19T04:33:52.630Z,9.33
2024-04-19T04:36:20.909Z,11.53
2024-04-19T04:38:49.138Z,7.30
2024-04-19T04:41:17.488Z,5.03
2024-04-19T04:43:45.696Z,4.93
2024-04-19T04:46:14.029Z,3.43
2024-04-19T04:48:42.298Z,5.67
2024-04-19T04:51:12.592Z,5.37
2024-04-19T04:53:42.521Z,4.67
2024-04-19T04:56:10.873Z,7.90
2024-04-19T04:58:39.204Z,11.43
2024-04-19T05:01:08.728Z,6.97
2024-04-19T05:03:37.176Z,6.30
2024-04-19T05:06:05.899Z,8.20
2024-04-19T05:08:36.237Z,4.10
2024-04-19T05:11:06.671Z,5.00
2024-04-19T05:13:35.513Z,3.20
2024-04-19T05:16:04.604Z,7.00
2024-04-19T05:18:33.021Z,7.30
2024-04-19T05:21:01.442Z,5.10
2024-04-19T05:23:29.755Z,5.27
2024-04-19T05:26:04.149Z,10.10
2024-04-19T05:28:33.012Z,4.73
2024-04-19T05:31:01.334Z,3.97
2024-04-19T05:33:30.074Z,3.67
2024-04-19T05:35:58.442Z,3.00
2024-04-19T05:38:26.798Z,3.67
2024-04-19T05:40:55.110Z,5.20
2024-04-19T05:43:25.632Z,3.63
2024-04-19T05:45:54.073Z,7.90
2024-04-19T05:48:22.866Z,7.13
2024-04-19T05:50:51.300Z,5.23
2024-04-19T05:53:19.523Z,4.10
2024-04-19T05:55:47.852Z,3.80
2024-04-19T05:58:16.213Z,4.57
2024-04-19T06:00:46.720Z,3.50
2024-04-19T06:03:15.271Z,4.23
2024-04-19T06:05:43.624Z,7.40
2024-04-19T06:08:13.163Z,4.47
2024-04-19T06:10:41.417Z,3.10
2024-04-19T06:13:09.690Z,2.83
2024-04-19T06:15:40.671Z,2.60
2024-04-19T06:18:11.267Z,2.57
2024-04-19T06:20:43.015Z,2.63
2024-04-19T06:23:11.710Z,6.63
2024-04-19T06:25:39.940Z,3.30
2024-04-19T06:28:08.281Z,11.03
2024-04-19T06:30:36.550Z,5.97
2024-04-19T06:33:05.008Z,5.30
2024-04-19T06:35:36.331Z,3.90
2024-04-19T06:38:04.955Z,9.67
2024-04-19T06:40:33.311Z,7.77
2024-04-19T06:43:01.545Z,4.80
2024-04-19T06:45:29.819Z,5.17
2024-04-19T06:47:58.495Z,3.40
2024-04-19T06:50:27.305Z,3.43
2024-04-19T06:52:57.605Z,4.90
2024-04-19T06:55:25.907Z,3.30
2024-04-19T06:57:57.432Z,3.30
2024-04-19T07:00:37.087Z,5.00
2024-04-19T07:03:14.551Z,4.80
2024-04-19T07:05:43.073Z,3.90
2024-04-19T07:08:13.640Z,4.93
2024-04-19T07:10:42.242Z,4.00
2024-04-19T07:13:10.579Z,3.70
2024-04-19T07:15:40.100Z,4.97
2024-04-19T07:18:08.526Z,4.20
2024-04-19T07:20:36.856Z,5.03
2024-04-19T07:23:05.261Z,7.27
2024-04-19T07:25:35.646Z,5.23
2024-04-19T07:28:04.016Z,6.47
2024-04-19T07:30:32.311Z,12.00
2024-04-19T07:33:00.725Z,5.60
2024-04-19T07:35:29.065Z,8.03
2024-04-19T07:37:57.482Z,6.90
2024-04-19T07:40:25.863Z,6.63
2024-04-19T07:42:57.365Z,5.97
2024-04-19T07:45:25.763Z,5.80
2024-04-19T07:47:54.488Z,5.07
2024-04-19T07:50:23.319Z,5.40
2024-04-19T07:52:52.984Z,7.93
2024-04-19T07:55:21.502Z,6.77
2024-04-19T07:57:50.567Z,7.67
2024-04-19T08:00:22.813Z,6.77
2024-04-19T08:02:51.161Z,6.10
2024-04-19T08:05:20.135Z,7.10
2024-04-19T08:07:48.391Z,6.57
2024-04-19T08:10:16.817Z,5.70
2024-04-19T08:12:46.341Z,5.37
2024-04-19T08:15:14.585Z,5.47
2024-04-19T08:17:44.950Z,7.90
2024-04-19T08:20:13.625Z,6.00
2024-04-19T08:22:41.850Z,5.60
2024-04-19T08:25:10.280Z,5.90
2024-04-19T08:27:38.648Z,7.90
2024-04-19T08:30:08.257Z,7.20
2024-04-19T08:32:36.661Z,6.63
2024-04-19T08:35:07.180Z,7.30
2024-04-19T08:37:35.518Z,7.80
2024-04-19T08:40:04.058Z,8.10
2024-04-19T08:42:32.741Z,8.87
2024-04-19T08:45:02.606Z,7.20
2024-04-19T08:47:35.842Z,9.30
2024-04-19T08:50:07.245Z,9.87
2024-04-19T08:52:58.129Z,8.87
2024-04-19T08:55:24.728Z,8.20
2024-04-19T08:57:53.282Z,8.30
2024-04-19T09:00:22.934Z,11.13
2024-04-19T09:02:51.637Z,12.33
2024-04-19T09:05:22.064Z,12.73
2024-04-19T09:07:50.367Z,11.83
2024-04-19T09:10:21.199Z,11.60
2024-04-19T09:12:49.430Z,10.83
2024-04-19T09:15:17.843Z,11.97
2024-04-19T09:17:46.137Z,10.27
2024-04-19T09:20:14.938Z,10.10
2024-04-19T09:22:45.323Z,10.03
2024-04-19T09:25:16.261Z,11.77
2024-04-19T09:27:44.647Z,11.63
2024-04-19T09:30:14.146Z,12.40
2024-04-19T09:32:42.569Z,7.97
2024-04-19T09:35:11.134Z,7.93
2024-04-19T09:37:39.940Z,9.30
2024-04-19T09:40:12.368Z,9.70
2024-04-19T09:42:41.602Z,7.17
2024-04-19T09:45:11.458Z,9.37
2024-04-19T09:47:41.187Z,8.17
2024-04-19T09:50:13.768Z,6.03
2024-04-19T09:52:46.020Z,4.57
2024-04-19T09:55:20.361Z,5.00
2024-04-19T09:57:50.285Z,3.03
2024-04-19T10:00:19.090Z,5.00
2024-04-19T10:02:47.626Z,6.13
2024-04-19T10:05:16.257Z,5.43
2024-04-19T10:07:44.531Z,4.07
2024-04-19T10:10:12.823Z,5.20
2024-04-19T10:12:43.575Z,4.57
2024-04-19T10:15:13.050Z,4.47
2024-04-19T10:17:42.158Z,4.23
2024-04-19T10:20:12.208Z,7.00
2024-04-19T10:22:42.877Z,7.00
2024-04-19T10:25:13.451Z,9.57
2024-04-19T10:27:47.660Z,8.53
2024-04-19T10:30:22.184Z,8.60
2024-04-19T10:32:56.630Z,8.87
2024-04-19T10:35:25.075Z,7.20
2024-04-19T10:37:53.504Z,8.50
2024-04-19T10:40:22.829Z,7.33
2024-04-19T10:43:01.439Z,9.47
2024-04-19T10:45:31.407Z,10.70
2024-04-19T10:48:00.252Z,8.63
2024-04-19T10:50:29.138Z,10.57
2024-04-19T10:52:57.771Z,7.00
2024-04-19T10:55:28.218Z,5.63
2024-04-19T10:57:58.813Z,6.13
2024-04-19T11:00:27.389Z,3.87
2024-04-19T11:03:06.884Z,9.03
2024-04-19T11:05:43.114Z,5.53
2024-04-19T11:08:11.578Z,4.77
2024-04-19T11:10:39.903Z,3.47
2024-04-19T11:13:10.817Z,2.23
2024-04-19T11:15:48.274Z,2.33
2024-04-19T11:18:21.366Z,1.73
2024-04-19T11:20:56.871Z,0.93
2024-04-19T11:23:34.275Z,1.40
2024-04-19T11:26:02.695Z,1.23
2024-04-19T11:28:33.106Z,2.73
2024-04-19T11:31:03.434Z,9.73
2024-04-19T11:33:29.784Z,2.23
2024-04-19T11:35:58.232Z,2.90
2024-04-19T11:38:26.553Z,3.33
2024-04-19T11:40:54.893Z,1.87
2024-04-19T11:43:23.238Z,1.40
2024-04-19T11:45:54.646Z,3.83
2024-04-19T11:48:26.382Z,1.20
2024-04-19T11:50:55.892Z,1.90
2024-04-19T11:53:22.198Z,1.23
2024-04-19T11:55:51.281Z,2.53
2024-04-19T11:58:19.551Z,4.50
2024-04-19T12:00:48.280Z,3.33
2024-04-19T12:03:18.840Z,2.37
2024-04-19T12:05:47.519Z,1.97
2024-04-19T12:08:16.152Z,3.67
2024-04-19T12:10:44.860Z,3.33
2024-04-19T12:13:51.166Z,1.90
2024-04-19T12:16:31.889Z,3.77
2024-04-19T12:18:52.086Z,6.83
2024-04-19T12:21:21.023Z,1.90
2024-04-19T12:23:51.060Z,3.27
2024-04-19T12:26:21.687Z,6.23
2024-04-19T12:28:54.476Z,2.67
2024-04-19T12:31:24.990Z,5.07
2024-04-19T12:33:55.964Z,2.90
2024-04-19T12:36:24.354Z,8.40
2024-04-19T12:38:52.954Z,4.03
2024-04-19T12:41:21.391Z,4.00
2024-04-19T12:43:49.841Z,2.37
2024-04-19T12:46:18.237Z,1.17
2024-04-19T12:48:48.227Z,0.90
2024-04-19T12:51:24.059Z,2.27
2024-04-19T12:53:52.477Z,2.10
2024-04-19T12:56:21.107Z,1.70
2024-04-19T12:58:49.518Z,1.70
2024-04-19T13:01:17.842Z,0.90
2024-04-19T13:03:49.620Z,4.00
2024-04-19T13:06:21.627Z,4.23
2024-04-19T13:08:50.918Z,2.50
2024-04-19T13:11:19.166Z,4.20
2024-04-19T13:13:53.336Z,1.53
2024-04-19T13:16:21.899Z,1.17
2024-04-19T13:18:50.432Z,1.70
2024-04-19T13:21:22.933Z,2.17
2024-04-19T13:23:51.358Z,1.23
2024-04-19T13:26:23.694Z,2.03
2024-04-19T13:28:55.813Z,0.63
2024-04-19T13:31:24.786Z,2.20
2024-04-19T13:33:53.207Z,1.40
2024-04-19T13:36:23.901Z,0.90
2024-04-19T13:38:52.451Z,2.33
2024-04-19T13:41:20.812Z,0.90
2024-04-19T13:43:47.339Z,3.53
2024-04-19T13:46:15.778Z,1.57
2024-04-19T13:48:44.190Z,1.30
2024-04-19T13:51:12.630Z,2.27
2024-04-19T13:53:43.473Z,0.73
2024-04-19T13:56:12.082Z,1.40
2024-04-19T13:58:40.322Z,0.60
2024-04-19T14:01:09.093Z,3.00
2024-04-19T14:03:37.451Z,1.43
2024-04-19T14:06:06.128Z,4.20
2024-04-19T14:08:35.723Z,3.13
2024-04-19T14:11:06.342Z,4.03
2024-04-19T14:13:34.619Z,1.73
2024-04-19T14:16:03.034Z,3.67
2024-04-19T14:18:31.356Z,0.93
2024-04-19T14:20:59.764Z,0.40
2024-04-19T14:23:29.781Z,1.37
2024-04-19T14:26:00.234Z,0.40
2024-04-19T14:28:31.407Z,0.70
2024-04-19T14:30:59.799Z,1.23
2024-04-19T14:33:28.208Z,1.30
2024-04-19T14:35:56.542Z,4.37
2024-04-19T14:38:24.938Z,0.93
2024-04-19T14:40:53.268Z,2.43
2024-04-19T14:43:21.593Z,2.37
2024-04-19T14:45:52.010Z,3.80
2024-04-19T14:48:20.800Z,2.80
2024-04-19T14:50:49.081Z,3.80
2024-04-19T14:53:17.417Z,3.10
2024-04-19T14:55:46.655Z,4.30
2024-04-19T14:58:14.930Z,4.07
2024-04-19T15:00:43.505Z,1.67
2024-04-19T15:03:14.005Z,2.77
2024-04-19T15:05:42.417Z,2.93
2024-04-19T15:08:10.681Z,6.33
2024-04-19T15:10:39.428Z,3.97
2024-04-19T15:13:07.725Z,4.13
2024-04-19T15:15:36.288Z,3.80
2024-04-19T15:18:04.815Z,2.27
2024-04-19T15:20:37.938Z,5.07
2024-04-19T15:23:06.967Z,2.87
2024-04-19T15:25:37.584Z,6.23
2024-04-19T15:28:09.574Z,1.87
2024-04-19T15:30:38.608Z,7.87
2024-04-19T15:33:07.448Z,7.00
2024-04-19T15:35:37.976Z,5.00
2024-04-19T15:38:10.501Z,4.30
2024-04-19T15:40:40.321Z,3.83
2024-04-19T15:43:08.564Z,5.83
2024-04-19T15:45:37.112Z,2.97
2024-04-19T15:48:05.760Z,3.87
2024-04-19T15:50:34.184Z,3.87
2024-04-19T15:53:04.584Z,5.53
2024-04-19T15:55:32.892Z,8.93
2024-04-19T15:58:01.303Z,4.00
2024-04-19T16:00:30.158Z,5.17
2024-04-19T16:02:59.587Z,9.83
2024-04-19T16:05:27.864Z,8.63
2024-04-19T16:07:56.174Z,7.23
2024-04-19T16:10:26.709Z,5.47
2024-04-19T16:12:55.688Z,4.50
2024-04-19T16:15:24.060Z,8.43
2024-04-19T16:17:52.464Z,7.73
2024-04-19T16:20:20.947Z,11.73
2024-04-19T16:22:49.251Z,5.90
2024-04-19T16:25:17.630Z,15.47
2024-04-19T16:27:48.046Z,9.20
2024-04-19T16:30:16.518Z,9.83
2024-04-19T16:32:44.905Z,6.23
2024-04-19T16:35:11.323Z,7.70
2024-04-19T16:37:39.934Z,9.10
2024-04-19T16:40:09.572Z,7.23
2024-04-19T16:42:37.861Z,8.03
2024-04-19T16:45:08.869Z,8.57
2024-04-19T16:47:37.410Z,5.73
2024-04-19T16:50:06.438Z,6.03
2024-04-19T16:52:34.870Z,6.83
2024-04-19T16:55:03.247Z,8.97
2024-04-19T16:57:31.474Z,6.03
2024-04-19T16:59:59.728Z,7.70
2024-04-19T17:02:30.101Z,2.80
2024-04-19T17:04:58.534Z,5.50
2024-04-19T17:07:26.972Z,3.73
2024-04-19T17:09:55.462Z,8.80
2024-04-19T17:12:24.821Z,8.00
2024-04-19T17:14:53.658Z,4.13
2024-04-19T17:17:22.052Z,6.60
2024-04-19T17:19:54.747Z,8.90
2024-04-19T17:22:23.120Z,4.13
2024-04-19T17:24:51.546Z,4.43
2024-04-19T17:27:20.003Z,6.80
2024-04-19T17:29:48.321Z,4.57
2024-04-19T17:32:16.741Z,1.97
2024-04-19T17:34:45.008Z,6.17
2024-04-19T17:37:16.626Z,7.37
2024-04-19T17:39:44.853Z,3.97
2024-04-19T17:42:13.311Z,4.50
2024-04-19T17:44:41.630Z,9.87
2024-04-19T17:47:10.021Z,4.47
2024-04-19T17:49:38.344Z,5.93
2024-04-19T17:52:07.275Z,2.27
2024-04-19T17:54:37.718Z,2.17
2024-04-19T17:57:06.651Z,4.00
2024-04-19T17:59:34.926Z,2.10
2024-04-19T18:02:03.904Z,3.67
2024-04-19T18:04:32.182Z,1.70
2024-04-19T18:07:00.884Z,8.17
2024-04-19T18:09:29.215Z,4.53
2024-04-19T18:11:59.767Z,1.80
2024-04-19T18:14:28.111Z,2.33
2024-04-19T18:16:56.948Z,4.73
2024-04-19T18:19:26.105Z,5.77
2024-04-19T18:21:54.647Z,4.97
2024-04-19T18:24:27.099Z,3.17
2024-04-19T18:26:55.666Z,5.33
2024-04-19T18:29:27.134Z,5.53
2024-04-19T18:31:55.682Z,8.17
2024-04-19T18:34:24.154Z,7.67
2024-04-19T18:36:52.591Z,3.00
2024-04-19T18:39:21.287Z,4.90
2024-04-19T18:41:50.084Z,6.67
2024-04-19T18:44:18.796Z,15.37
2024-04-19T18:46:49.448Z,7.00
2024-04-19T18:49:18.147Z,9.03
2024-04-19T18:51:46.576Z,10.27
2024-04-19T18:54:15.364Z,7.07
2024-04-19T18:56:44.505Z,6.27
2024-04-19T18:59:12.742Z,7.43
2024-04-19T19:01:41.708Z,5.60
2024-04-19T19:04:12.801Z,9.23
2024-04-19T19:06:41.790Z,8.57
2024-04-19T19:09:10.918Z,5.20
2024-04-19T19:11:39.336Z,5.77
2024-04-19T19:14:07.973Z,6.23
2024-04-19T19:16:37.345Z,4.97
2024-04-19T19:19:06.699Z,7.93
2024-04-19T19:21:37.966Z,6.67
2024-04-19T19:24:06.766Z,6.90
2024-04-19T19:30:22.278Z,4.53
2024-04-19T19:32:50.870Z,5.13
2024-04-19T19:35:19.237Z,5.97
2024-04-19T19:37:49.635Z,15.20
2024-04-19T19:40:22.318Z,7.37
2024-04-19T19:42:51.324Z,5.00
2024-04-19T19:45:19.600Z,9.87
2024-04-19T19:47:48.328Z,7.57
2024-04-19T19:50:16.737Z,6.23
2024-04-19T19:52:45.035Z,7.13
2024-04-19T19:55:15.378Z,5.97
2024-04-19T19:57:43.718Z,3.43
2024-04-19T20:00:29.488Z,4.87
2024-04-19T20:03:14.495Z,6.17
2024-04-19T20:05:50.185Z,5.63
2024-04-19T20:08:18.576Z,7.50
2024-04-19T20:10:49.011Z,5.60
2024-04-19T20:13:17.343Z,8.67
2024-04-19T20:15:49.607Z,7.13
2024-04-19T20:18:19.433Z,7.73
2024-04-19T20:20:49.394Z,7.87
2024-04-19T20:23:18.174Z,10.87
2024-04-19T20:25:48.509Z,9.70
2024-04-19T20:28:16.928Z,10.23
2024-04-19T20:30:45.388Z,6.67
2024-04-19T20:33:13.785Z,14.63
2024-04-19T20:35:42.325Z,10.93
2024-04-19T20:38:10.687Z,6.67
2024-04-19T20:40:39.699Z,5.63
2024-04-19T20:43:18.388Z,8.47
2024-04-19T20:45:49.171Z,15.20
2024-04-19T20:48:19.060Z,10.27
2024-04-19T20:50:49.378Z,13.30
2024-04-19T20:53:17.615Z,13.07
2024-04-19T20:55:45.886Z,9.70
2024-04-19T20:58:16.144Z,10.20
2024-04-19T21:00:45.074Z,8.30
2024-04-19T21:03:13.397Z,17.03
2024-04-19T21:05:42.358Z,9.27
2024-04-19T21:08:10.647Z,9.53
2024-04-19T21:10:38.987Z,10.53
2024-04-19T21:13:07.545Z,9.47
2024-04-19T21:15:37.909Z,12.53
2024-04-19T21:18:06.818Z,14.83
2024-04-19T21:20:36.406Z,10.03
2024-04-19T21:23:04.894Z,12.50
2024-04-19T21:25:33.075Z,9.03
2024-04-19T21:28:01.404Z,15.93
2024-04-19T21:30:29.714Z,7.77
2024-04-19T21:33:00.078Z,9.60
2024-04-19T21:35:28.436Z,7.03
2024-04-19T21:37:56.752Z,10.40
2024-04-19T21:40:25.124Z,6.60
2024-04-19T21:42:55.252Z,8.60
2024-04-19T21:45:25.745Z,8.90
2024-04-19T21:47:54.406Z,15.20
2024-04-19T21:50:24.686Z,4.17
2024-04-19T21:52:52.906Z,11.97
2024-04-19T21:55:21.115Z,4.50
2024-04-19T21:57:49.503Z,2.57
2024-04-19T22:00:18.053Z,9.33
2024-04-19T22:02:48.423Z,4.43
2024-04-19T22:05:17.098Z,5.53
2024-04-19T22:07:47.476Z,8.77
2024-04-19T22:10:15.708Z,4.90
2024-04-19T22:12:44.105Z,7.20
2024-04-19T22:15:12.389Z,4.33
2024-04-19T22:17:40.762Z,4.10
2024-04-19T22:20:11.502Z,12.03
2024-04-19T22:22:40.976Z,2.70
2024-04-19T22:25:11.952Z,6.17
2024-04-19T22:27:40.189Z,2.70
2024-04-19T22:30:10.043Z,5.63
2024-04-19T22:32:38.394Z,5.50
2024-04-19T22:35:07.686Z,5.97
2024-04-19T22:37:36.252Z,4.80
2024-04-19T22:40:04.873Z,2.93
2024-04-19T22:42:35.362Z,2.40
2024-04-19T22:45:03.588Z,4.67
2024-04-19T22:47:32.224Z,2.23
2024-04-19T22:50:00.747Z,3.27
2024-04-19T22:52:29.257Z,3.57
2024-04-19T22:54:57.586Z,3.67
2024-04-19T22:57:26.070Z,4.13
2024-04-19T22:59:56.934Z,1.90
2024-04-19T23:02:25.470Z,4.87
2024-04-19T23:04:57.834Z,5.43
2024-04-19T23:07:26.138Z,3.93
2024-04-19T23:09:54.560Z,4.20
2024-04-19T23:12:23.160Z,7.07
2024-04-19T23:14:51.556Z,3.20
2024-04-19T23:17:22.529Z,7.00
2024-04-19T23:19:50.754Z,5.63
2024-04-19T23:22:19.106Z,3.30
2024-04-19T23:24:47.532Z,7.13
2024-04-19T23:27:15.905Z,4.67
2024-04-19T23:29:44.173Z,3.80
2024-04-19T23:32:12.678Z,4.43
2024-04-19T23:34:42.987Z,6.03
2024-04-19T23:37:11.267Z,2.47
2024-04-19T23:39:39.672Z,2.60
2024-04-19T23:42:08.333Z,2.47
2024-04-19T23:44:36.580Z,5.03
2024-04-19T23:47:08.084Z,3.60
2024-04-19T23:49:37.069Z,4.43
2024-04-19T23:52:07.848Z,5.50
2024-04-19T23:54:36.146Z,1.50
2024-04-19T23:57:04.452Z,3.70
2024-04-19T23:59:32.628Z,9.27
